Time;durP1;ratioP1;P1;durP2;ratioP2;P2;SDS_P1;SDS_P2;PMS_P1;PMS_P2;Temp;Humidity;BMP_temperature;BMP_pressure;BME280_temperature;BME280_humidity;BME280_pressure;Samples;Min_cycle;Max_cycle;Signal;HPM_P1;HPM_P2
2022/03/19 00:00:38;;;;;;;68.05;35.33;;;;;;;1.34;56.98;102199.88;4935949;29;20111;-78
2022/03/19 00:03:04;;;;;;;67.95;35.60;;;;;;;1.27;56.91;102179.13;4935604;29;20027;-76
2022/03/19 00:05:29;;;;;;;79.75;40.25;;;;;;;1.39;56.58;102198.38;4935880;29;20036;-76
2022/03/19 00:07:55;;;;;;;77.50;39.03;;;;;;;1.43;56.09;102191.59;4935938;29;20515;-76
2022/03/19 00:10:22;;;;;;;70.50;38.08;;;;;;;1.32;56.47;102177.56;4966703;28;20061;-76
2022/03/19 00:12:48;;;;;;;71.63;38.35;;;;;;;1.39;55.62;102184.63;4935746;29;20091;-76
2022/03/19 00:15:16;;;;;;;67.57;38.20;;;;;;;1.45;55.97;102189.97;4935353;29;20034;-76
2022/03/19 00:17:41;;;;;;;62.05;33.40;;;;;;;1.43;55.80;102181.34;4935520;29;20565;-76
2022/03/19 00:20:08;;;;;;;71.32;38.20;;;;;;;1.49;56.06;102189.25;4935496;29;20023;-77
2022/03/19 00:22:34;;;;;;;74.03;38.63;;;;;;;1.42;56.18;102183.03;4966487;28;20040;-77
2022/03/19 00:25:00;;;;;;;71.22;38.83;;;;;;;1.54;56.02;102189.38;4934033;29;20058;-77
2022/03/19 00:27:25;;;;;;;69.63;37.22;;;;;;;1.47;55.70;102170.34;4934184;29;20070;-77
2022/03/19 00:29:51;;;;;;;77.50;38.42;;;;;;;1.53;55.92;102183.38;4935633;29;20510;-77
2022/03/19 00:32:17;;;;;;;80.90;43.55;;;;;;;1.48;56.24;102172.97;4935318;29;20083;-77
2022/03/19 00:34:43;;;;;;;77.57;39.47;;;;;;;1.55;56.61;102192.00;4934243;28;20062;-77
2022/03/19 00:37:08;;;;;;;86.30;42.90;;;;;;;1.42;56.56;102165.06;4935411;29;20031;-77
2022/03/19 00:39:33;;;;;;;77.82;39.13;;;;;;;1.40;56.61;102166.72;4935401;29;20024;-77
2022/03/19 00:41:59;;;;;;;89.50;46.85;;;;;;;1.36;57.40;102167.44;4965818;28;20036;-78
2022/03/19 00:44:24;;;;;;;87.60;49.10;;;;;;;1.31;57.40;102158.75;4935122;29;20023;-78
2022/03/19 00:46:50;;;;;;;70.65;37.83;;;;;;;1.38;57.11;102181.19;4965821;28;20031;-77
2022/03/19 00:49:16;;;;;;;70.55;38.70;;;;;;;1.43;56.75;102183.91;4934739;29;20495;-78
2022/03/19 00:51:41;;;;;;;72.72;38.22;;;;;;;1.35;56.58;102168.28;4935175;29;20031;-78
2022/03/19 00:54:09;;;;;;;66.40;39.15;;;;;;;1.39;56.38;102184.63;4934925;29;20035;-77
2022/03/19 00:56:35;;;;;;;72.43;40.17;;;;;;;1.29;56.54;102160.38;4965657;28;20043;-78
2022/03/19 00:59:00;;;;;;;73.47;36.80;;;;;;;1.27;56.43;102174.00;4965455;28;20530;-78
2022/03/19 01:01:26;;;;;;;71.60;39.88;;;;;;;1.34;56.40;102178.47;4965536;28;20031;-78
2022/03/19 01:03:52;;;;;;;79.88;40.80;;;;;;;1.25;56.38;102161.09;4965934;28;20504;-76
2022/03/19 01:06:18;;;;;;;76.47;39.88;;;;;;;1.22;56.18;102155.84;4934783;29;20066;-77
2022/03/19 01:08:43;;;;;;;72.15;40.22;;;;;;;1.42;55.49;102177.03;4965512;28;20167;-77
2022/03/19 01:11:09;;;;;;;86.15;45.05;;;;;;;1.51;55.44;102177.31;4934400;29;20468;-77
2022/03/19 01:13:34;;;;;;;120.95;55.67;;;;;;;1.48;56.09;102160.13;4965584;28;20130;-77
2022/03/19 01:16:00;;;;;;;146.75;63.88;;;;;;;1.65;55.42;102165.78;4965168;28;20444;-77
2022/03/19 01:18:25;;;;;;;136.70;60.53;;;;;;;1.58;55.11;102139.84;4934854;29;20054;-77
2022/03/19 01:20:50;;;;;;;115.72;54.60;;;;;;;1.82;54.26;102167.97;4934845;29;20028;-77
2022/03/19 01:23:16;;;;;;;87.05;44.33;;;;;;;1.86;54.12;102159.53;4934585;29;20039;-77
2022/03/19 01:25:41;;;;;;;75.72;39.35;;;;;;;1.87;53.82;102151.84;4933487;28;20114;-76
2022/03/19 01:28:07;;;;;;;72.32;39.20;;;;;;;1.99;53.52;102167.63;4934506;29;20032;-77
2022/03/19 01:30:32;;;;;;;77.75;40.92;;;;;;;1.91;53.19;102138.28;4934592;29;20039;-77
2022/03/19 01:32:57;;;;;;;72.75;40.05;;;;;;;2.05;52.71;102161.78;4934498;29;20027;-77
2022/03/19 01:35:23;;;;;;;77.85;41.85;;;;;;;2.08;52.84;102161.88;4965270;28;20118;-77
2022/03/19 01:37:49;;;;;;;81.63;39.72;;;;;;;2.03;52.66;102142.03;4965318;28;20036;-77
2022/03/19 01:40:17;;;;;;;74.72;39.55;;;;;;;2.12;52.22;102152.56;4965078;28;20032;-78
2022/03/19 01:42:45;;;;;;;76.78;41.45;;;;;;;2.14;52.59;102148.31;4965210;28;20032;-78
2022/03/19 01:45:14;;;;;;;85.03;40.47;;;;;;;2.16;52.42;102156.97;4964916;28;20043;-77
2022/03/19 01:47:40;;;;;;;85.88;40.60;;;;;;;2.16;52.63;102155.25;4934604;29;20035;-77
2022/03/19 01:50:07;;;;;;;75.18;41.70;;;;;;;2.15;52.18;102148.38;4934378;29;20095;-77
2022/03/19 01:52:32;;;;;;;76.05;41.60;;;;;;;2.18;52.51;102155.28;4934446;29;20028;-78
2022/03/19 01:54:59;;;;;;;76.82;41.90;;;;;;;2.09;52.43;102137.03;4934506;29;20046;-77
2022/03/19 01:57:26;;;;;;;84.43;42.33;;;;;;;2.09;52.61;102134.47;4934025;29;20032;-77
2022/03/19 01:59:53;;;;;;;72.80;42.33;;;;;;;2.16;52.72;102141.53;4965033;28;20118;-77
2022/03/19 02:02:19;;;;;;;85.30;43.00;;;;;;;2.17;52.88;102141.56;4934282;29;20563;-77
2022/03/19 02:04:45;;;;;;;75.07;41.50;;;;;;;2.04;52.75;102115.50;4934261;29;20430;-77
2022/03/19 02:07:12;;;;;;;83.22;40.97;;;;;;;2.18;52.88;102137.28;4964806;28;20063;-77
2022/03/19 02:09:38;;;;;;;78.03;40.67;;;;;;;2.07;52.92;102118.16;4934185;29;20396;-77
2022/03/19 02:12:06;;;;;;;78.47;42.22;;;;;;;2.22;52.58;102139.13;4933822;29;20042;-77
2022/03/19 02:14:36;;;;;;;76.78;41.75;;;;;;;2.21;52.71;102138.25;4964899;28;20032;-77
2022/03/19 02:17:03;;;;;;;75.35;40.03;;;;;;;2.13;52.51;102126.88;4934452;29;20032;-77
2022/03/19 02:19:28;;;;;;;81.68;42.03;;;;;;;2.18;52.57;102139.88;4934407;29;20031;-77
2022/03/19 02:21:54;;;;;;;81.10;41.67;;;;;;;2.13;53.09;102133.72;4936956;29;20059;-77
2022/03/19 02:27:04;;;;;;;76.93;42.53;;;;;;;2.09;53.21;102130.19;4937334;29;20147;-77
2022/03/19 02:29:30;;;;;;;75.22;41.90;;;;;;;2.12;53.38;102140.56;4937672;29;20478;-77
2022/03/19 02:31:58;;;;;;;82.03;42.13;;;;;;;2.12;53.54;102134.56;4937681;29;20144;-77
2022/03/19 02:34:24;;;;;;;74.57;40.13;;;;;;;2.03;53.72;102122.34;4968187;28;20369;-77
2022/03/19 02:36:49;;;;;;;80.78;40.35;;;;;;;2.13;53.40;102129.47;4968522;28;20043;-78
2022/03/19 02:39:19;;;;;;;84.38;43.67;;;;;;;2.12;53.30;102132.00;4937014;29;20027;-77
2022/03/19 02:41:49;;;;;;;71.28;41.88;;;;;;;2.20;53.24;102138.22;4937236;29;20496;-77
2022/03/19 02:44:17;;;;;;;77.10;42.53;;;;;;;2.20;53.78;102144.22;4937521;29;20435;-77
2022/03/19 02:46:46;;;;;;;73.50;41.17;;;;;;;2.17;53.93;102130.41;4937401;29;20047;-77
2022/03/19 02:49:12;;;;;;;78.80;42.65;;;;;;;2.14;53.47;102120.91;4937134;29;20031;-77
2022/03/19 02:51:39;;;;;;;82.15;42.63;;;;;;;2.12;53.60;102120.00;4937161;29;20452;-77
2022/03/19 02:54:07;;;;;;;75.00;40.30;;;;;;;2.24;53.31;102134.91;4936732;29;20075;-78
2022/03/19 02:56:37;;;;;;;75.38;40.10;;;;;;;2.25;53.56;102134.06;4968081;28;20035;-77
2022/03/19 02:59:12;;;;;;;75.97;40.40;;;;;;;2.22;53.68;102132.28;4937022;29;20032;-77
2022/03/19 03:01:41;;;;;;;73.40;41.40;;;;;;;2.15;53.55;102114.06;4967883;28;20051;-77
2022/03/19 03:04:07;;;;;;;77.90;41.80;;;;;;;2.22;53.40;102121.13;4936672;29;20036;-77
2022/03/19 03:06:41;;;;;;;74.38;39.17;;;;;;;2.14;53.01;102113.19;4936797;29;20028;-76
2022/03/19 03:09:07;;;;;;;81.60;42.67;;;;;;;2.23;53.66;102131.47;4936762;29;20032;-76
2022/03/19 03:11:33;;;;;;;79.90;42.88;;;;;;;2.22;53.40;102128.84;4936727;29;20062;-76
2022/03/19 03:13:59;;;;;;;76.90;42.05;;;;;;;2.19;53.65;102131.31;4936753;29;20489;-76
2022/03/19 03:16:26;;;;;;;75.47;42.17;;;;;;;2.12;53.67;102114.00;4936533;29;20051;-76
2022/03/19 03:18:54;;;;;;;78.95;43.15;;;;;;;2.10;53.63;102111.38;4967417;28;20432;-76
2022/03/19 03:21:19;;;;;;;77.00;42.47;;;;;;;2.16;54.02;102126.97;4936266;29;20483;-76
2022/03/19 03:23:45;;;;;;;80.85;44.05;;;;;;;2.09;54.07;102117.34;4936762;29;20028;-76
2022/03/19 03:26:10;;;;;;;81.93;45.60;;;;;;;2.07;53.83;102116.44;4936714;29;20107;-76
2022/03/19 03:28:36;;;;;;;87.65;44.40;;;;;;;2.11;54.05;102126.00;4936505;29;20092;-77
2022/03/19 03:31:02;;;;;;;79.55;43.20;;;;;;;2.08;54.43;102125.91;4936756;29;20054;-77
2022/03/19 03:33:27;;;;;;;81.40;43.25;;;;;;;2.00;54.76;102105.13;4935497;29;20067;-77
2022/03/19 03:35:53;;;;;;;76.28;42.22;;;;;;;2.07;54.54;102121.59;4936661;29;20055;-77
2022/03/19 03:38:19;;;;;;;74.30;40.53;;;;;;;2.07;54.22;102119.03;4936062;29;20494;-77
2022/03/19 03:40:45;;;;;;;73.70;39.08;;;;;;;2.03;54.28;102106.91;4936425;29;20035;-77
2022/03/19 03:43:10;;;;;;;81.45;40.28;;;;;;;2.05;53.97;102118.09;4967013;28;20689;-77
2022/03/19 03:45:36;;;;;;;77.47;41.47;;;;;;;1.99;54.06;102111.09;4936225;29;20484;-76
2022/03/19 03:48:01;;;;;;;76.47;41.05;;;;;;;1.93;53.94;102092.03;4936114;29;20114;-76
2022/03/19 03:50:28;;;;;;;71.25;36.92;;;;;;;2.03;53.92;102111.19;4935821;29;20473;-76
2022/03/19 03:52:54;;;;;;;68.95;38.38;;;;;;;1.98;53.17;102103.31;4936181;29;20134;-76
2022/03/19 03:55:20;;;;;;;74.28;37.03;;;;;;;2.05;53.49;102117.22;4935738;29;20036;-76
2022/03/19 03:57:46;;;;;;;67.90;37.05;;;;;;;2.06;53.46;102121.53;4935959;29;20110;-77
2022/03/19 04:00:12;;;;;;;64.63;36.45;;;;;;;2.06;52.67;102124.09;4935675;29;20063;-78
2022/03/19 04:02:38;;;;;;;60.67;33.85;;;;;;;2.06;53.00;102126.66;4935794;29;20040;-78
2022/03/19 04:05:05;;;;;;;70.65;37.88;;;;;;;1.87;53.24;102099.59;4935805;29;20503;-78
2022/03/19 04:07:31;;;;;;;73.32;39.13;;;;;;;1.92;52.97;102123.72;4966508;28;20431;-78
2022/03/19 04:09:56;;;;;;;74.00;42.22;;;;;;;1.70;53.54;102101.69;4935921;29;20032;-78
2022/03/19 04:12:22;;;;;;;88.28;44.00;;;;;;;1.63;54.34;102105.75;4935401;29;20044;-77
2022/03/19 04:14:49;;;;;;;78.30;42.33;;;;;;;1.57;54.53;102112.44;4935737;29;20031;-78
2022/03/19 04:17:15;;;;;;;80.43;43.70;;;;;;;1.46;54.75;102112.09;4966140;28;20175;-78
2022/03/19 04:19:41;;;;;;;78.82;42.63;;;;;;;1.44;55.01;102116.34;4966133;28;20027;-78
2022/03/19 04:22:06;;;;;;;75.57;40.92;;;;;;;1.36;55.04;102121.22;4935700;29;20038;-78
2022/03/19 04:24:32;;;;;;;78.60;40.97;;;;;;;1.30;55.13;102117.59;4966136;28;20019;-78
2022/03/19 04:26:57;;;;;;;71.82;38.72;;;;;;;1.09;54.96;102085.28;4935786;29;20039;-77
2022/03/19 04:29:23;;;;;;;72.72;40.22;;;;;;;1.23;55.16;102121.69;4935201;29;20044;-78
2022/03/19 04:31:48;;;;;;;70.75;38.83;;;;;;;1.17;54.73;102106.06;4966044;28;20464;-77
2022/03/19 04:34:14;;;;;;;71.50;38.67;;;;;;;1.11;55.17;102103.31;4935329;29;20039;-78
2022/03/19 04:36:40;;;;;;;66.45;37.40;;;;;;;1.09;55.10;102110.09;4966133;28;20034;-77
2022/03/19 04:39:07;;;;;;;67.72;36.58;;;;;;;1.00;55.12;102102.97;4966134;28;20028;-76
2022/03/19 04:41:34;;;;;;;74.82;37.00;;;;;;;0.94;54.64;102095.97;4965820;28;20118;-76
2022/03/19 04:44:00;;;;;;;65.78;36.63;;;;;;;0.93;54.72;102106.19;4934497;29;20035;-77
2022/03/19 04:46:26;;;;;;;67.65;36.35;;;;;;;0.86;54.47;102097.41;4934870;29;20032;-76
2022/03/19 04:48:52;;;;;;;61.70;35.20;;;;;;;0.85;54.60;102098.25;4935064;29;20063;-76
2022/03/19 04:51:19;;;;;;;65.90;35.33;;;;;;;0.85;54.85;102105.94;4934824;29;20039;-77
2022/03/19 04:53:50;;;;;;;64.85;35.55;;;;;;;0.90;54.70;102106.09;4934995;29;20431;-77
2022/03/19 04:56:17;;;;;;;63.90;34.55;;;;;;;0.81;54.73;102096.41;4934825;29;20027;-77
2022/03/19 04:58:43;;;;;;;61.15;32.03;;;;;;;0.86;54.48;102114.50;4965641;28;20448;-77
2022/03/19 05:01:08;;;;;;;58.33;34.17;;;;;;;0.86;54.16;102107.66;4934842;29;20051;-77
2022/03/19 05:03:34;;;;;;;61.78;33.63;;;;;;;0.81;53.98;102098.09;4934852;29;20039;-76
2022/03/19 05:06:00;;;;;;;58.78;33.70;;;;;;;0.84;54.02;102099.03;4965829;28;20056;-77
2022/03/19 05:08:25;;;;;;;68.30;32.25;;;;;;;0.76;53.54;102085.13;4934755;29;20039;-76
2022/03/19 05:13:34;;;;;;;64.05;34.30;;;;;;;0.78;53.65;102090.28;4934677;29;20070;-76
2022/03/19 05:15:59;;;;;;;82.30;38.33;;;;;;;0.77;53.33;102093.69;4934881;29;20464;-76
2022/03/19 05:18:25;;;;;;;58.35;32.47;;;;;;;0.75;53.35;102091.91;4934419;29;20035;-76
2022/03/19 05:20:50;;;;;;;55.22;31.17;;;;;;;0.86;53.41;102111.94;4934831;29;20118;-77
2022/03/19 05:23:16;;;;;;;87.97;37.67;;;;;;;0.86;53.33;102112.81;4934559;29;20024;-77
2022/03/19 05:25:41;;;;;;;56.75;30.25;;;;;;;0.93;52.72;102119.03;4934664;29;20039;-77
2022/03/19 05:28:06;;;;;;;219.70;91.40;;;;;;;0.84;51.71;102085.34;4934642;29;20499;-76
2022/03/19 05:30:32;;;;;;;224.43;99.07;;;;;;;1.12;51.04;102115.31;4934288;29;20488;-77
2022/03/19 05:32:58;;;;;;;140.82;59.90;;;;;;;1.13;50.47;102102.53;4934707;29;20082;-77
2022/03/19 05:35:24;;;;;;;133.45;56.35;;;;;;;1.38;49.92;102122.13;4934276;29;20468;-77
2022/03/19 05:37:50;;;;;;;148.35;62.63;;;;;;;1.34;49.27;102083.47;4934626;29;20059;-76
2022/03/19 05:40:17;;;;;;;178.98;77.07;;;;;;;1.60;48.60;102109.94;4934324;29;20491;-77
2022/03/19 05:42:42;;;;;;;154.48;65.38;;;;;;;1.64;47.89;102093.78;4934452;29;20043;-76
2022/03/19 05:45:10;;;;;;;94.18;42.63;;;;;;;1.87;47.63;102118.44;4934659;29;20031;-76
2022/03/19 05:47:38;;;;;;;56.30;28.65;;;;;;;1.98;47.50;102118.72;4934429;29;20036;-76
2022/03/19 05:50:03;;;;;;;102.68;48.80;;;;;;;2.00;46.76;102110.25;4934560;29;20122;-76
2022/03/19 05:52:29;;;;;;;55.45;29.92;;;;;;;2.11;46.87;102113.13;4934285;29;20112;-76
2022/03/19 05:54:54;;;;;;;47.03;26.10;;;;;;;2.20;46.54;102115.94;4934444;29;20250;-76
2022/03/19 05:57:20;;;;;;;37.85;23.45;;;;;;;2.25;46.65;102111.78;4937553;29;20383;-77
2022/03/19 05:59:45;;;;;;;41.67;24.30;;;;;;;2.36;46.46;102117.25;4938323;29;20039;-76
2022/03/19 06:02:10;;;;;;;51.90;29.58;;;;;;;2.41;46.15;102118.22;4938339;29;20028;-76
2022/03/19 06:04:36;;;;;;;43.88;25.85;;;;;;;2.40;46.17;102103.63;4936680;29;20281;-77
2022/03/19 06:07:02;;;;;;;40.25;24.75;;;;;;;2.55;46.34;102116.00;4968831;28;20535;-77
2022/03/19 06:09:28;;;;;;;54.33;29.02;;;;;;;2.67;46.46;102120.59;4937694;29;20039;-74
2022/03/19 06:11:53;;;;;;;55.03;30.48;;;;;;;2.78;46.69;102126.00;4937676;29;20024;-75
2022/03/19 06:14:19;;;;;;;46.47;28.90;;;;;;;2.81;46.88;102119.22;4968654;28;20086;-75
2022/03/19 06:16:45;;;;;;;50.05;29.27;;;;;;;2.96;46.52;102136.75;4937984;29;20126;-75
2022/03/19 06:19:11;;;;;;;56.88;32.88;;;;;;;2.87;46.32;102113.38;4937790;29;20464;-76
2022/03/19 06:21:39;;;;;;;63.90;32.47;;;;;;;2.96;46.50;102116.16;4937504;29;20135;-76
2022/03/19 06:24:07;;;;;;;60.10;33.10;;;;;;;3.08;46.74;102129.34;4937718;29;20023;-76
2022/03/19 06:26:33;;;;;;;60.10;34.38;;;;;;;3.14;47.05;102133.75;4937333;29;20051;-76
2022/03/19 06:28:58;;;;;;;65.32;37.03;;;;;;;3.24;47.51;102141.75;4938052;29;20023;-76
2022/03/19 06:31:24;;;;;;;72.32;40.78;;;;;;;3.19;48.00;102119.28;4937539;29;20110;-77
2022/03/19 06:33:49;;;;;;;80.50;40.88;;;;;;;3.30;48.84;102132.41;4937605;29;20028;-77
2022/03/19 06:38:59;;;;;;;92.35;49.53;;;;;;;3.49;49.91;102139.69;4937480;29;20038;-76
2022/03/19 06:41:25;;;;;;;88.72;50.85;;;;;;;3.58;50.07;102147.66;4937357;29;20032;-76
2022/03/19 06:43:51;;;;;;;86.97;49.20;;;;;;;3.56;50.03;102135.56;4937470;29;20485;-77
2022/03/19 06:46:17;;;;;;;93.05;49.95;;;;;;;3.84;49.95;102145.63;4937156;29;20049;-76
2022/03/19 06:48:43;;;;;;;93.38;49.33;;;;;;;4.25;48.91;102136.13;4937324;29;20470;-77
2022/03/19 06:51:08;;;;;;;85.47;49.58;;;;;;;4.53;48.04;102157.28;4967984;28;20118;-77
2022/03/19 06:53:33;;;;;;;82.25;47.25;;;;;;;4.87;47.81;102148.44;4936898;29;20028;-77
2022/03/19 06:55:59;;;;;;;81.78;46.92;;;;;;;5.66;46.78;102145.31;4937118;29;20031;-77
2022/03/19 06:58:24;;;;;;;99.20;54.47;;;;;;;6.98;43.60;102140.72;4936869;29;20520;-77
2022/03/19 07:00:50;;;;;;;72.85;43.53;;;;;;;7.44;41.21;102138.47;4937406;29;20035;-79
2022/03/19 07:03:16;;;;;;;71.40;45.20;;;;;;;7.93;39.92;102146.50;4967665;28;20032;-79
2022/03/19 07:05:41;;;;;;;83.20;50.22;;;;;;;8.85;38.96;102151.06;4967372;28;20390;-79
2022/03/19 07:08:08;;;;;;;67.57;38.72;;;;;;;9.27;36.40;102147.63;4935854;29;20028;-79
2022/03/19 07:10:35;;;;;;;66.47;39.15;;;;;;;9.36;36.28;102141.53;4935631;29;20030;-79
2022/03/19 07:13:01;;;;;;;66.78;40.28;;;;;;;10.43;35.10;102144.59;4936834;29;20052;-79
2022/03/19 07:15:28;;;;;;;96.07;51.10;;;;;;;10.61;32.59;102124.50;4936580;29;20027;-79
2022/03/19 07:18:00;;;;;;;79.45;44.92;;;;;;;10.27;33.50;102152.50;4967317;28;20135;-78
2022/03/19 07:20:25;;;;;;;66.35;40.00;;;;;;;10.74;33.31;102153.09;4936395;29;20469;-79
2022/03/19 07:22:58;;;;;;;67.35;40.80;;;;;;;11.10;31.61;102142.34;4935641;29;20035;-79
2022/03/19 07:25:31;;;;;;;94.28;59.05;;;;;;;11.23;32.33;102155.28;4935166;29;20020;-78
2022/03/19 07:27:59;;;;;;;67.35;43.28;;;;;;;11.14;31.94;102146.66;4933983;28;20287;-79
2022/03/19 07:30:25;;;;;;;66.50;42.28;;;;;;;11.60;31.09;102152.28;4935023;29;20031;-79
2022/03/19 07:32:50;;;;;;;76.63;47.92;;;;;;;11.71;31.55;102149.56;4935041;29;20468;-78
2022/03/19 07:35:16;;;;;;;80.80;49.15;;;;;;;12.34;30.97;102154.00;4935305;29;20027;-78
2022/03/19 07:37:43;;;;;;;59.63;37.15;;;;;;;12.98;29.15;102151.28;4935236;29;20144;-78
2022/03/19 07:40:11;;;;;;;62.30;39.45;;;;;;;13.99;27.65;102164.28;4934943;29;20028;-79
2022/03/19 07:42:37;;;;;;;68.70;43.00;;;;;;;13.10;27.32;102160.66;4957580;28;20142;-79
2022/03/19 07:45:04;;;;;;;69.45;38.47;;;;;;;12.37;28.52;102169.66;4934952;29;20059;-78
2022/03/19 07:47:30;;;;;;;63.28;39.80;;;;;;;13.05;28.28;102138.97;4934764;29;20027;-78
2022/03/19 07:49:56;;;;;;;69.70;40.88;;;;;;;13.80;27.35;102163.78;4935203;29;20060;-77
2022/03/19 07:52:21;;;;;;;63.60;40.72;;;;;;;12.77;27.85;102159.50;4935699;29;20036;-77
2022/03/19 07:54:47;;;;;;;62.67;38.85;;;;;;;11.41;29.25;102175.09;4936179;29;20028;-78
2022/03/19 07:57:13;;;;;;;71.75;48.97;;;;;;;10.58;30.93;102166.22;4936261;29;20389;-78
2022/03/19 07:59:39;;;;;;;58.00;36.90;;;;;;;9.96;31.74;102178.66;4935675;29;20462;-79
2022/03/19 08:02:05;;;;;;;64.43;43.70;;;;;;;9.47;32.49;102164.03;4935925;29;20520;-79
2022/03/19 08:04:31;;;;;;;67.03;40.08;;;;;;;8.90;33.51;102171.00;4935840;29;20036;-80
2022/03/19 08:06:56;;;;;;;59.85;36.25;;;;;;;8.78;34.09;102181.41;4935925;29;20039;-80
2022/03/19 08:09:23;;;;;;;56.67;36.97;;;;;;;8.64;34.37;102175.31;4966544;28;20074;-80
2022/03/19 08:11:49;;;;;;;88.03;55.80;;;;;;;8.21;34.93;102169.97;4935732;29;20031;-81
2022/03/19 08:14:16;;;;;;;55.92;35.85;;;;;;;7.99;35.47;102184.59;4966458;28;20035;-80
2022/03/19 08:16:46;;;;;;;61.88;41.47;;;;;;;8.00;35.83;102178.53;4966278;28;20036;-81
2022/03/19 08:19:12;;;;;;;60.92;42.72;;;;;;;8.02;35.56;102178.56;4935147;29;20055;-80
2022/03/19 08:21:38;;;;;;;54.10;32.20;;;;;;;7.91;35.56;102181.09;4966193;28;20035;-79
2022/03/19 08:24:05;;;;;;;65.45;36.70;;;;;;;7.72;36.79;102165.44;4966461;28;20028;-80
2022/03/19 08:26:31;;;;;;;51.20;33.45;;;;;;;7.77;36.89;102175.84;4966135;28;20036;-80
2022/03/19 08:28:57;;;;;;;54.80;37.20;;;;;;;7.81;37.01;102176.72;4935881;29;20032;-79
2022/03/19 08:31:22;;;;;;;67.78;31.83;;;;;;;7.72;36.29;102181.00;4965831;28;20034;-79
2022/03/19 08:33:48;;;;;;;46.80;29.58;;;;;;;7.78;36.75;102189.66;4935237;29;20083;-79
2022/03/19 08:36:14;;;;;;;51.58;31.70;;;;;;;7.65;36.26;102178.34;4966176;28;20067;-79
2022/03/19 08:41:23;;;;;;;40.60;25.08;;;;;;;7.61;36.50;102167.09;4935162;29;20078;-79
2022/03/19 08:43:49;;;;;;;41.10;24.88;;;;;;;7.68;36.24;102173.19;4935138;29;20103;-79
2022/03/19 08:46:14;;;;;;;33.03;22.23;;;;;;;7.66;35.87;102175.75;4935116;29;20399;-79
2022/03/19 08:48:40;;;;;;;33.25;22.95;;;;;;;7.66;34.85;102178.34;4965724;28;20114;-78
2022/03/19 08:53:49;;;;;;;31.33;19.17;;;;;;;7.69;34.55;102169.72;4935277;29;20038;-78
2022/03/19 08:56:16;;;;;;;30.23;18.67;;;;;;;7.65;33.88;102180.94;4934981;29;20032;-78
2022/03/19 08:58:41;;;;;;;31.65;18.55;;;;;;;7.67;32.88;102187.91;4934527;29;20498;-78
2022/03/19 09:01:06;;;;;;;33.05;19.90;;;;;;;7.59;32.07;102186.13;4965972;28;20036;-78
2022/03/19 09:03:33;;;;;;;28.63;17.58;;;;;;;7.42;32.00;102176.50;4934855;29;20456;-78
2022/03/19 09:05:59;;;;;;;27.52;17.48;;;;;;;7.42;32.53;102173.03;4965637;28;20036;-78
2022/03/19 09:08:26;;;;;;;23.70;16.27;;;;;;;7.55;31.40;102174.84;4934675;29;20028;-78
2022/03/19 09:10:51;;;;;;;36.30;17.85;;;;;;;7.55;30.19;102171.41;4934834;29;20036;-77
2022/03/19 09:13:17;;;;;;;25.75;17.73;;;;;;;7.40;29.51;102180.78;4933846;29;20831;-79
2022/03/19 09:15:42;;;;;;;25.05;16.75;;;;;;;7.32;29.95;102182.44;4949470;28;20034;-77
2022/03/19 09:18:07;;;;;;;25.48;18.10;;;;;;;7.18;30.21;102169.41;4934619;29;20071;-78
2022/03/19 09:20:33;;;;;;;26.02;16.83;;;;;;;7.30;30.33;102175.53;4933175;29;20460;-80
2022/03/19 09:22:58;;;;;;;23.08;17.05;;;;;;;7.30;29.76;102179.00;4933415;29;20024;-77
2022/03/19 09:25:24;;;;;;;26.00;17.88;;;;;;;7.24;29.71;102184.13;4934596;29;20031;-77
2022/03/19 09:27:49;;;;;;;27.08;17.17;;;;;;;7.10;29.79;102158.09;4934524;29;20035;-77
2022/03/19 09:30:14;;;;;;;28.00;18.25;;;;;;;7.10;30.55;102178.84;4935340;29;20086;-78
2022/03/19 09:32:41;;;;;;;26.52;18.25;;;;;;;7.14;30.90;102180.59;4937210;29;20032;-76
2022/03/19 09:35:07;;;;;;;38.10;18.60;;;;;;;7.13;30.56;102197.00;4938629;29;20036;-77
2022/03/19 09:37:32;;;;;;;23.75;17.30;;;;;;;6.95;30.74;102169.22;4938431;29;20548;-78
2022/03/19 09:39:58;;;;;;;28.75;19.10;;;;;;;6.94;30.77;102179.56;4938538;29;20036;-78
2022/03/19 09:42:26;;;;;;;30.95;18.50;;;;;;;6.98;31.10;102181.31;4937147;28;20032;-77
2022/03/19 09:44:52;;;;;;;25.63;17.75;;;;;;;7.03;31.11;102177.03;4937278;29;20035;-77
2022/03/19 09:47:18;;;;;;;21.35;16.15;;;;;;;7.07;31.01;102180.53;4936258;28;20032;-77
2022/03/19 09:49:44;;;;;;;26.02;16.73;;;;;;;7.13;30.79;102163.31;4936168;28;20039;-77
2022/03/19 09:52:12;;;;;;;27.63;15.43;;;;;;;7.14;30.21;102159.88;4938116;29;20028;-79
2022/03/19 09:54:38;;;;;;;49.80;16.88;;;;;;;7.19;28.83;102171.13;4969508;28;20138;-80
2022/03/19 09:57:04;;;;;;;29.50;16.17;;;;;;;7.05;28.60;102151.16;4946312;28;20055;-79
2022/03/19 09:59:29;;;;;;;25.67;15.85;;;;;;;7.25;29.71;102170.31;4958543;28;20113;-86
2022/03/19 10:01:56;;;;;;;23.80;15.20;;;;;;;7.35;29.76;102176.44;4954815;29;20027;-85
2022/03/19 10:04:21;;;;;;;31.38;18.60;;;;;;;7.31;28.77;102167.75;4954914;29;20515;-83
2022/03/19 10:09:40;;;;;;;28.60;17.30;;;;;;;7.39;29.28;102171.28;4954771;29;20050;-78
2022/03/19 10:12:11;;;;;;;24.83;16.35;;;;;;;7.45;29.84;102180.81;4954413;29;20065;-77
2022/03/19 10:14:36;;;;;;;31.98;18.10;;;;;;;7.52;29.53;102181.75;4938268;29;20138;-77
2022/03/19 10:17:04;;;;;;;27.00;17.70;;;;;;;7.57;29.70;102182.63;4954604;29;20111;-78
2022/03/19 10:19:29;;;;;;;34.45;17.67;;;;;;;7.46;29.40;102177.38;4954208;28;20510;-77
2022/03/19 10:22:08;;;;;;;24.10;16.25;;;;;;;7.39;29.63;102173.00;4954466;28;20027;-77
2022/03/19 10:24:36;;;;;;;30.77;17.15;;;;;;;7.37;29.83;102154.84;4953060;29;20055;-77
2022/03/19 10:27:02;;;;;;;22.75;16.45;;;;;;;7.50;29.72;102172.22;4937445;29;20027;-77
2022/03/19 10:29:33;;;;;;;147.50;22.67;;;;;;;7.63;29.58;102180.09;4937704;29;20042;-95
2022/03/19 10:32:07;;;;;;;39.00;15.95;;;;;;;7.57;29.13;102164.47;4936271;28;20032;-84
2022/03/19 10:34:35;;;;;;;56.15;17.92;;;;;;;7.58;29.41;102154.09;4935783;29;20028;-82
2022/03/19 10:37:01;;;;;;;27.30;17.50;;;;;;;7.60;29.20;102175.75;4936541;28;20034;-78
2022/03/19 10:39:29;;;;;;;43.17;18.00;;;;;;;7.64;29.05;102174.91;4937374;29;20099;-78
2022/03/19 10:41:56;;;;;;;23.63;16.20;;;;;;;7.61;29.26;102199.94;4937213;29;20024;-81
2022/03/19 10:44:25;;;;;;;26.10;16.10;;;;;;;7.50;29.09;102154.09;4936023;29;20167;-84
2022/03/19 10:46:56;;;;;;;31.20;18.13;;;;;;;7.50;28.88;102172.22;4936997;29;20027;-82
2022/03/19 10:49:24;;;;;;;30.10;16.90;;;;;;;7.41;28.38;102176.47;4937474;29;20043;-83
2022/03/19 10:51:53;;;;;;;24.17;17.20;;;;;;;7.46;28.56;102177.38;4932970;29;20126;-79
2022/03/19 10:54:19;;;;;;;22.27;16.17;;;;;;;7.45;28.98;102175.63;4937379;29;20046;-79
2022/03/19 10:56:46;;;;;;;23.70;15.63;;;;;;;7.43;29.14;102161.81;4936817;29;20035;-79
2022/03/19 10:59:12;;;;;;;26.67;16.30;;;;;;;7.34;29.00;102138.41;4936465;29;20035;-82
2022/03/19 11:01:38;;;;;;;27.25;16.55;;;;;;;7.53;29.62;102161.00;4935880;28;20032;-81
2022/03/19 11:04:06;;;;;;;23.58;14.98;;;;;;;7.64;28.86;102171.44;4936949;29;20484;-85
2022/03/19 11:06:40;;;;;;;31.65;20.85;;;;;;;7.56;29.45;102155.81;4935516;29;20035;-80
2022/03/19 11:09:10;;;;;;;25.45;14.73;;;;;;;7.66;28.33;102170.56;4936983;29;20027;-80
2022/03/19 11:11:56;;;;;;;20.88;15.43;;;;;;;7.59;27.63;102166.22;4935310;29;20122;-79
2022/03/19 11:14:23;;;;;;;21.40;15.45;;;;;;;7.58;28.26;102148.03;4935725;28;20373;-82
2022/03/19 11:17:27;;;;;;;55.80;34.42;;;;;;;7.63;28.20;102156.75;4936456;29;20678;-84
2022/03/19 11:20:02;;;;;;;21.02;14.95;;;;;;;7.63;27.59;102141.19;4936458;29;20032;-78
2022/03/19 11:22:39;;;;;;;27.73;15.20;;;;;;;7.66;28.21;102141.19;4935257;29;20111;-82
2022/03/19 11:25:30;;;;;;;28.20;16.45;;;;;;;7.74;27.96;102152.47;4935497;28;20024;-79
2022/03/19 11:28:08;;;;;;;;;;;;;;;7.83;28.37;102146.44;4935727;29;20123;-79
2022/03/19 11:30:40;;;;;;;29.38;18.60;;;;;;;7.70;28.67;102138.59;4935947;29;20322;-80